sensor_id;sensor_type;location;lat;lon;timestamp;pressure;altitude;pressure_sealevel;temperature;humidity
66681;BME280;53575;51.366;12.350;2023-04-19T00:00:05;101257.53;;;8.78;92.64
66681;BME280;53575;51.366;12.350;2023-04-19T00:02:34;101246.88;;;8.66;92.50
66681;BME280;53575;51.366;12.350;2023-04-19T00:04:59;101249.47;;;8.63;93.10
66681;BME280;53575;51.366;12.350;2023-04-19T00:07:25;101251.19;;;8.64;90.94
66681;BME280;53575;51.366;12.350;2023-04-19T00:09:51;101251.13;;;8.59;90.45
66681;BME280;53575;51.366;12.350;2023-04-19T00:12:17;101241.66;;;8.64;89.48
66681;BME280;53575;51.366;12.350;2023-04-19T00:14:42;101244.31;;;8.69;88.38
66681;BME280;53575;51.366;12.350;2023-04-19T00:17:08;101244.44;;;8.76;87.64
66681;BME280;53575;51.366;12.350;2023-04-19T00:19:35;101241.78;;;8.73;86.91
66681;BME280;53575;51.366;12.350;2023-04-19T00:22:00;101238.19;;;8.64;86.71
66681;BME280;53575;51.366;12.350;2023-04-19T00:24:26;101244.84;;;8.48;88.37
66681;BME280;53575;51.366;12.350;2023-04-19T00:26:51;101238.78;;;8.47;89.21
66681;BME280;53575;51.366;12.350;2023-04-19T00:29:17;101240.22;;;8.35;90.64
66681;BME280;53575;51.366;12.350;2023-04-19T00:31:42;101234.25;;;8.37;90.48
66681;BME280;53575;51.366;12.350;2023-04-19T00:34:07;101237.88;;;8.47;89.50
66681;BME280;53575;51.366;12.350;2023-04-19T00:36:33;101236.94;;;8.42;88.50
66681;BME280;53575;51.366;12.350;2023-04-19T00:38:58;101232.41;;;8.33;87.40
66681;BME280;53575;51.366;12.350;2023-04-19T00:41:24;101232.19;;;8.21;87.61
66681;BME280;53575;51.366;12.350;2023-04-19T00:43:49;101237.25;;;8.13;86.61
66681;BME280;53575;51.366;12.350;2023-04-19T00:46:15;101235.53;;;8.15;86.10
66681;BME280;53575;51.366;12.350;2023-04-19T00:48:40;101229.44;;;8.13;86.44
66681;BME280;53575;51.366;12.350;2023-04-19T00:51:06;101233.59;;;8.05;86.48
66681;BME280;53575;51.366;12.350;2023-04-19T00:53:32;101239.72;;;8.05;86.56
66681;BME280;53575;51.366;12.350;2023-04-19T00:55:59;101232.50;;;7.91;86.74
66681;BME280;53575;51.366;12.350;2023-04-19T00:58:27;101238.78;;;8.02;86.61
66681;BME280;53575;51.366;12.350;2023-04-19T01:00:54;101233.72;;;8.10;86.17
66681;BME280;53575;51.366;12.350;2023-04-19T01:03:19;101236.28;;;8.08;86.47
66681;BME280;53575;51.366;12.350;2023-04-19T01:05:46;101228.41;;;8.05;86.47
66681;BME280;53575;51.366;12.350;2023-04-19T01:08:12;101230.00;;;7.97;87.06
66681;BME280;53575;51.366;12.350;2023-04-19T01:10:38;101227.44;;;8.00;87.39
66681;BME280;53575;51.366;12.350;2023-04-19T01:13:03;101231.72;;;7.96;88.43
66681;BME280;53575;51.366;12.350;2023-04-19T01:15:29;101220.31;;;7.90;89.42
66681;BME280;53575;51.366;12.350;2023-04-19T01:17:55;101223.47;;;7.73;90.93
66681;BME280;53575;51.366;12.350;2023-04-19T01:20:21;101226.84;;;7.69;91.45
66681;BME280;53575;51.366;12.350;2023-04-19T01:22:46;101220.13;;;7.79;91.41
66681;BME280;53575;51.366;12.350;2023-04-19T01:25:11;101217.78;;;7.50;92.37
66681;BME280;53575;51.366;12.350;2023-04-19T01:27:37;101219.28;;;7.38;92.67
66681;BME280;53575;51.366;12.350;2023-04-19T01:30:03;101210.53;;;7.36;92.66
66681;BME280;53575;51.366;12.350;2023-04-19T01:32:28;101214.97;;;7.40;92.41
66681;BME280;53575;51.366;12.350;2023-04-19T01:34:53;101208.78;;;7.33;92.22
66681;BME280;53575;51.366;12.350;2023-04-19T01:37:19;101216.69;;;7.39;92.21
66681;BME280;53575;51.366;12.350;2023-04-19T01:39:44;101212.19;;;7.32;91.69
66681;BME280;53575;51.366;12.350;2023-04-19T01:42:10;101224.22;;;7.27;92.02
66681;BME280;53575;51.366;12.350;2023-04-19T01:44:35;101219.72;;;7.18;92.61
66681;BME280;53575;51.366;12.350;2023-04-19T01:47:01;101224.69;;;7.09;92.69
66681;BME280;53575;51.366;12.350;2023-04-19T01:49:26;101223.88;;;7.10;93.12
66681;BME280;53575;51.366;12.350;2023-04-19T01:51:51;101217.75;;;7.08;93.38
66681;BME280;53575;51.366;12.350;2023-04-19T01:54:17;101217.59;;;7.02;93.42
66681;BME280;53575;51.366;12.350;2023-04-19T01:56:42;101216.69;;;7.00;93.41
66681;BME280;53575;51.366;12.350;2023-04-19T01:59:08;101219.53;;;7.11;93.46
66681;BME280;53575;51.366;12.350;2023-04-19T02:01:33;101216.13;;;7.13;92.91
66681;BME280;53575;51.366;12.350;2023-04-19T02:04:01;101214.06;;;6.98;94.13
66681;BME280;53575;51.366;12.350;2023-04-19T02:06:26;101212.03;;;6.87;94.77
66681;BME280;53575;51.366;12.350;2023-04-19T02:08:52;101211.16;;;6.86;94.91
66681;BME280;53575;51.366;12.350;2023-04-19T02:11:17;101210.88;;;6.72;95.84
66681;BME280;53575;51.366;12.350;2023-04-19T02:13:43;101223.09;;;6.78;96.08
66681;BME280;53575;51.366;12.350;2023-04-19T02:16:09;101207.34;;;6.70;95.88
66681;BME280;53575;51.366;12.350;2023-04-19T02:18:35;101215.22;;;6.73;96.35
66681;BME280;53575;51.366;12.350;2023-04-19T02:21:04;101216.25;;;6.81;95.89
66681;BME280;53575;51.366;12.350;2023-04-19T02:23:29;101209.41;;;6.83;95.60
66681;BME280;53575;51.366;12.350;2023-04-19T02:25:55;101204.06;;;6.77;96.13
66681;BME280;53575;51.366;12.350;2023-04-19T02:28:20;101208.09;;;6.65;96.94
66681;BME280;53575;51.366;12.350;2023-04-19T02:30:46;101214.88;;;6.59;97.14
66681;BME280;53575;51.366;12.350;2023-04-19T02:33:11;101207.03;;;6.56;97.61
66681;BME280;53575;51.366;12.350;2023-04-19T02:35:37;101214.69;;;6.52;97.08
66681;BME280;53575;51.366;12.350;2023-04-19T02:38:03;101208.78;;;6.59;96.95
66681;BME280;53575;51.366;12.350;2023-04-19T02:40:29;101202.00;;;6.64;96.76
66681;BME280;53575;51.366;12.350;2023-04-19T02:42:54;101202.75;;;6.60;96.89
66681;BME280;53575;51.366;12.350;2023-04-19T02:45:20;101203.75;;;6.65;96.88
66681;BME280;53575;51.366;12.350;2023-04-19T02:47:45;101202.72;;;6.58;96.65
66681;BME280;53575;51.366;12.350;2023-04-19T02:50:12;101202.75;;;6.60;96.51
66681;BME280;53575;51.366;12.350;2023-04-19T02:52:37;101201.41;;;6.40;96.97
66681;BME280;53575;51.366;12.350;2023-04-19T02:55:04;101205.59;;;6.34;96.74
66681;BME280;53575;51.366;12.350;2023-04-19T02:57:29;101203.97;;;6.38;97.02
66681;BME280;53575;51.366;12.350;2023-04-19T02:59:55;101196.78;;;6.28;97.05
66681;BME280;53575;51.366;12.350;2023-04-19T03:02:20;101198.47;;;6.26;97.07
66681;BME280;53575;51.366;12.350;2023-04-19T03:04:46;101203.88;;;6.35;97.02
66681;BME280;53575;51.366;12.350;2023-04-19T03:07:12;101197.56;;;6.25;96.24
66681;BME280;53575;51.366;12.350;2023-04-19T03:09:37;101192.56;;;6.33;96.57
66681;BME280;53575;51.366;12.350;2023-04-19T03:12:03;101196.59;;;6.22;95.89
66681;BME280;53575;51.366;12.350;2023-04-19T03:14:29;101192.16;;;6.16;96.45
66681;BME280;53575;51.366;12.350;2023-04-19T03:16:54;101194.66;;;6.13;96.68
66681;BME280;53575;51.366;12.350;2023-04-19T03:19:20;101200.09;;;6.22;96.08
66681;BME280;53575;51.366;12.350;2023-04-19T03:21:45;101194.16;;;6.26;95.86
66681;BME280;53575;51.366;12.350;2023-04-19T03:24:11;101189.00;;;6.28;95.72
66681;BME280;53575;51.366;12.350;2023-04-19T03:26:36;101182.66;;;6.17;95.16
66681;BME280;53575;51.366;12.350;2023-04-19T03:29:02;101188.00;;;6.23;94.76
66681;BME280;53575;51.366;12.350;2023-04-19T03:31:27;101182.94;;;6.29;94.93
66681;BME280;53575;51.366;12.350;2023-04-19T03:33:53;101186.41;;;6.29;93.33
66681;BME280;53575;51.366;12.350;2023-04-19T03:36:18;101179.16;;;6.15;93.79
66681;BME280;53575;51.366;12.350;2023-04-19T03:38:44;101184.44;;;6.19;93.90
66681;BME280;53575;51.366;12.350;2023-04-19T03:41:20;101183.03;;;6.32;93.13
66681;BME280;53575;51.366;12.350;2023-04-19T03:43:45;101181.88;;;6.21;93.36
66681;BME280;53575;51.366;12.350;2023-04-19T03:46:11;101194.94;;;6.24;92.95
66681;BME280;53575;51.366;12.350;2023-04-19T03:48:36;101178.63;;;6.29;92.19
66681;BME280;53575;51.366;12.350;2023-04-19T03:51:01;101178.72;;;6.32;91.07
66681;BME280;53575;51.366;12.350;2023-04-19T03:53:27;101184.06;;;6.39;91.39
66681;BME280;53575;51.366;12.350;2023-04-19T03:55:53;101183.50;;;6.50;89.10
66681;BME280;53575;51.366;12.350;2023-04-19T03:58:18;101179.75;;;6.39;89.82
66681;BME280;53575;51.366;12.350;2023-04-19T04:00:44;101178.22;;;6.47;88.77
66681;BME280;53575;51.366;12.350;2023-04-19T04:03:09;101173.13;;;6.52;87.60
66681;BME280;53575;51.366;12.350;2023-04-19T04:05:35;101176.31;;;6.40;88.12
66681;BME280;53575;51.366;12.350;2023-04-19T04:08:00;101177.81;;;6.30;87.60
66681;BME280;53575;51.366;12.350;2023-04-19T04:10:25;101182.25;;;6.34;86.68
66681;BME280;53575;51.366;12.350;2023-04-19T04:12:51;101178.97;;;6.42;86.08
66681;BME280;53575;51.366;12.350;2023-04-19T04:15:16;101177.94;;;6.37;85.81
66681;BME280;53575;51.366;12.350;2023-04-19T04:17:42;101183.09;;;6.33;86.08
66681;BME280;53575;51.366;12.350;2023-04-19T04:20:07;101182.50;;;6.10;85.66
66681;BME280;53575;51.366;12.350;2023-04-19T04:22:33;101179.28;;;6.21;85.55
66681;BME280;53575;51.366;12.350;2023-04-19T04:24:59;101179.09;;;6.13;85.71
66681;BME280;53575;51.366;12.350;2023-04-19T04:27:26;101180.25;;;6.24;85.39
66681;BME280;53575;51.366;12.350;2023-04-19T04:29:52;101182.06;;;6.28;83.72
66681;BME280;53575;51.366;12.350;2023-04-19T04:32:17;101182.25;;;6.36;83.40
66681;BME280;53575;51.366;12.350;2023-04-19T04:34:47;101176.59;;;6.16;83.98
66681;BME280;53575;51.366;12.350;2023-04-19T04:37:12;101176.03;;;6.29;82.78
66681;BME280;53575;51.366;12.350;2023-04-19T04:39:38;101181.94;;;6.22;81.74
66681;BME280;53575;51.366;12.350;2023-04-19T04:42:05;101181.78;;;6.16;81.73
66681;BME280;53575;51.366;12.350;2023-04-19T04:44:34;101187.03;;;6.19;81.97
66681;BME280;53575;51.366;12.350;2023-04-19T04:47:00;101188.63;;;6.14;81.34
66681;BME280;53575;51.366;12.350;2023-04-19T04:49:25;101183.56;;;6.19;81.30
66681;BME280;53575;51.366;12.350;2023-04-19T04:51:51;101187.81;;;6.15;80.66
66681;BME280;53575;51.366;12.350;2023-04-19T04:54:16;101182.53;;;6.12;80.46
66681;BME280;53575;51.366;12.350;2023-04-19T04:56:41;101185.34;;;6.21;79.71
66681;BME280;53575;51.366;12.350;2023-04-19T04:59:10;101181.84;;;6.19;79.96
66681;BME280;53575;51.366;12.350;2023-04-19T05:01:35;101181.41;;;6.37;78.77
66681;BME280;53575;51.366;12.350;2023-04-19T05:04:01;101180.53;;;6.35;78.78
66681;BME280;53575;51.366;12.350;2023-04-19T05:06:26;101179.78;;;6.41;77.56
66681;BME280;53575;51.366;12.350;2023-04-19T05:08:51;101187.66;;;6.44;77.11
66681;BME280;53575;51.366;12.350;2023-04-19T05:11:17;101189.19;;;6.35;76.97
66681;BME280;53575;51.366;12.350;2023-04-19T05:13:45;101182.69;;;6.53;75.04
66681;BME280;53575;51.366;12.350;2023-04-19T05:16:11;101190.16;;;6.41;74.98
66681;BME280;53575;51.366;12.350;2023-04-19T05:18:36;101179.06;;;6.46;74.34
66681;BME280;53575;51.366;12.350;2023-04-19T05:21:02;101190.31;;;6.45;72.48
66681;BME280;53575;51.366;12.350;2023-04-19T05:23:27;101181.50;;;6.40;70.20
66681;BME280;53575;51.366;12.350;2023-04-19T05:25:53;101175.63;;;6.47;69.70
66681;BME280;53575;51.366;12.350;2023-04-19T05:28:18;101178.13;;;6.44;68.41
66681;BME280;53575;51.366;12.350;2023-04-19T05:30:43;101186.78;;;6.43;68.14
66681;BME280;53575;51.366;12.350;2023-04-19T05:33:09;101187.72;;;6.47;67.51
66681;BME280;53575;51.366;12.350;2023-04-19T05:35:34;101172.22;;;6.50;67.06
66681;BME280;53575;51.366;12.350;2023-04-19T05:38:00;101180.72;;;6.43;67.79
66681;BME280;53575;51.366;12.350;2023-04-19T05:40:25;101181.81;;;6.18;67.47
66681;BME280;53575;51.366;12.350;2023-04-19T05:42:51;101178.72;;;6.32;66.94
66681;BME280;53575;51.366;12.350;2023-04-19T05:45:17;101176.47;;;6.46;66.20
66681;BME280;53575;51.366;12.350;2023-04-19T05:47:45;101177.50;;;6.53;66.76
66681;BME280;53575;51.366;12.350;2023-04-19T05:50:10;101168.00;;;6.55;66.53
66681;BME280;53575;51.366;12.350;2023-04-19T05:52:36;101169.66;;;6.51;66.69
66681;BME280;53575;51.366;12.350;2023-04-19T05:55:02;101167.34;;;6.64;66.60
66681;BME280;53575;51.366;12.350;2023-04-19T05:57:27;101174.84;;;6.51;65.45
66681;BME280;53575;51.366;12.350;2023-04-19T05:59:52;101174.66;;;6.44;65.50
66681;BME280;53575;51.366;12.350;2023-04-19T06:02:18;101171.28;;;6.46;65.61
66681;BME280;53575;51.366;12.350;2023-04-19T06:04:43;101180.69;;;6.41;65.53
66681;BME280;53575;51.366;12.350;2023-04-19T06:07:09;101170.84;;;6.29;65.17
66681;BME280;53575;51.366;12.350;2023-04-19T06:09:35;101169.53;;;6.45;65.68
66681;BME280;53575;51.366;12.350;2023-04-19T06:12:00;101166.56;;;6.66;65.01
66681;BME280;53575;51.366;12.350;2023-04-19T06:14:26;101169.31;;;6.74;64.92
66681;BME280;53575;51.366;12.350;2023-04-19T06:16:52;101163.44;;;6.81;64.75
66681;BME280;53575;51.366;12.350;2023-04-19T06:19:17;101166.22;;;6.89;65.14
66681;BME280;53575;51.366;12.350;2023-04-19T06:21:43;101169.06;;;7.01;64.59
66681;BME280;53575;51.366;12.350;2023-04-19T06:24:08;101177.38;;;6.84;65.83
66681;BME280;53575;51.366;12.350;2023-04-19T06:26:33;101166.34;;;6.57;67.94
66681;BME280;53575;51.366;12.350;2023-04-19T06:28:59;101169.75;;;6.56;67.46
66681;BME280;53575;51.366;12.350;2023-04-19T06:31:25;101173.72;;;6.40;67.29
66681;BME280;53575;51.366;12.350;2023-04-19T06:33:50;101177.94;;;6.37;68.02
66681;BME280;53575;51.366;12.350;2023-04-19T06:36:16;101175.66;;;6.14;67.24
66681;BME280;53575;51.366;12.350;2023-04-19T06:38:41;101176.41;;;6.10;67.28
66681;BME280;53575;51.366;12.350;2023-04-19T06:41:09;101173.22;;;6.20;67.64
66681;BME280;53575;51.366;12.350;2023-04-19T06:43:34;101169.66;;;6.17;67.68
66681;BME280;53575;51.366;12.350;2023-04-19T06:46:01;101167.88;;;6.14;67.89
66681;BME280;53575;51.366;12.350;2023-04-19T06:48:27;101162.56;;;6.09;67.74
66681;BME280;53575;51.366;12.350;2023-04-19T06:50:54;101173.00;;;6.11;67.83
66681;BME280;53575;51.366;12.350;2023-04-19T06:53:19;101167.13;;;6.18;68.32
66681;BME280;53575;51.366;12.350;2023-04-19T06:55:45;101169.00;;;6.24;67.88
66681;BME280;53575;51.366;12.350;2023-04-19T06:58:10;101165.16;;;6.09;68.50
66681;BME280;53575;51.366;12.350;2023-04-19T07:00:36;101161.09;;;6.19;69.05
66681;BME280;53575;51.366;12.350;2023-04-19T07:03:02;101152.47;;;6.20;68.83
66681;BME280;53575;51.366;12.350;2023-04-19T07:05:29;101156.78;;;6.20;69.46
66681;BME280;53575;51.366;12.350;2023-04-19T07:07:54;101164.56;;;6.20;70.30
66681;BME280;53575;51.366;12.350;2023-04-19T07:10:20;101159.09;;;6.09;69.59
66681;BME280;53575;51.366;12.350;2023-04-19T07:12:46;101167.03;;;6.15;69.52
66681;BME280;53575;51.366;12.350;2023-04-19T07:15:11;101157.44;;;6.11;70.46
66681;BME280;53575;51.366;12.350;2023-04-19T07:17:37;101152.28;;;6.14;71.86
66681;BME280;53575;51.366;12.350;2023-04-19T07:20:03;101151.84;;;6.30;70.89
66681;BME280;53575;51.366;12.350;2023-04-19T07:22:31;101147.81;;;6.42;70.23
66681;BME280;53575;51.366;12.350;2023-04-19T07:24:56;101146.28;;;6.50;70.68
66681;BME280;53575;51.366;12.350;2023-04-19T07:27:22;101148.59;;;6.39;70.22
66681;BME280;53575;51.366;12.350;2023-04-19T07:29:48;101148.56;;;6.38;69.80
66681;BME280;53575;51.366;12.350;2023-04-19T07:32:13;101140.03;;;6.43;70.04
66681;BME280;53575;51.366;12.350;2023-04-19T07:34:40;101131.72;;;6.56;69.21
66681;BME280;53575;51.366;12.350;2023-04-19T07:37:06;101138.78;;;6.64;68.62
66681;BME280;53575;51.366;12.350;2023-04-19T07:39:32;101131.94;;;6.67;67.88
66681;BME280;53575;51.366;12.350;2023-04-19T07:41:58;101135.22;;;6.58;68.07
66681;BME280;53575;51.366;12.350;2023-04-19T07:44:23;101132.88;;;6.69;67.95
66681;BME280;53575;51.366;12.350;2023-04-19T07:46:49;101135.53;;;6.72;67.28
66681;BME280;53575;51.366;12.350;2023-04-19T07:49:15;101135.22;;;6.58;65.20
66681;BME280;53575;51.366;12.350;2023-04-19T07:51:40;101137.97;;;6.66;65.99
66681;BME280;53575;51.366;12.350;2023-04-19T07:54:06;101136.44;;;6.74;65.71
66681;BME280;53575;51.366;12.350;2023-04-19T07:56:31;101121.00;;;6.80;65.40
66681;BME280;53575;51.366;12.350;2023-04-19T07:58:58;101131.31;;;6.77;65.71
66681;BME280;53575;51.366;12.350;2023-04-19T08:01:24;101139.09;;;6.77;65.95
66681;BME280;53575;51.366;12.350;2023-04-19T08:03:50;101135.03;;;6.89;66.84
66681;BME280;53575;51.366;12.350;2023-04-19T08:06:16;101142.03;;;6.93;66.26
66681;BME280;53575;51.366;12.350;2023-04-19T08:08:42;101135.03;;;6.89;66.59
66681;BME280;53575;51.366;12.350;2023-04-19T08:11:07;101137.78;;;6.96;66.45
66681;BME280;53575;51.366;12.350;2023-04-19T08:13:33;101132.75;;;7.02;65.37
66681;BME280;53575;51.366;12.350;2023-04-19T08:15:59;101122.63;;;7.16;64.86
66681;BME280;53575;51.366;12.350;2023-04-19T08:18:24;101120.31;;;7.31;65.01
66681;BME280;53575;51.366;12.350;2023-04-19T08:20:50;101112.75;;;7.42;65.16
66681;BME280;53575;51.366;12.350;2023-04-19T08:23:16;101114.63;;;7.49;64.80
66681;BME280;53575;51.366;12.350;2023-04-19T08:25:42;101112.25;;;7.62;62.24
66681;BME280;53575;51.366;12.350;2023-04-19T08:28:07;101105.38;;;7.67;62.53
66681;BME280;53575;51.366;12.350;2023-04-19T08:30:33;101098.44;;;7.66;60.83
66681;BME280;53575;51.366;12.350;2023-04-19T08:32:58;101104.78;;;7.78;60.02
66681;BME280;53575;51.366;12.350;2023-04-19T08:35:23;101094.38;;;7.81;60.76
66681;BME280;53575;51.366;12.350;2023-04-19T08:37:49;101100.38;;;7.77;60.34
66681;BME280;53575;51.366;12.350;2023-04-19T08:40:15;101101.44;;;7.87;60.55
66681;BME280;53575;51.366;12.350;2023-04-19T08:42:41;101097.09;;;7.88;60.86
66681;BME280;53575;51.366;12.350;2023-04-19T08:45:07;101094.66;;;7.97;60.95
66681;BME280;53575;51.366;12.350;2023-04-19T08:47:36;101090.56;;;8.11;60.61
66681;BME280;53575;51.366;12.350;2023-04-19T08:50:03;101083.72;;;8.18;59.30
66681;BME280;53575;51.366;12.350;2023-04-19T08:52:32;101083.91;;;8.28;58.85
66681;BME280;53575;51.366;12.350;2023-04-19T08:55:03;101076.16;;;8.33;59.87
66681;BME280;53575;51.366;12.350;2023-04-19T08:57:30;101073.72;;;8.42;59.04
66681;BME280;53575;51.366;12.350;2023-04-19T08:59:57;101074.63;;;8.46;58.74
66681;BME280;53575;51.366;12.350;2023-04-19T09:02:23;101063.44;;;8.53;58.40
66681;BME280;53575;51.366;12.350;2023-04-19T09:04:48;101062.63;;;8.56;58.35
66681;BME280;53575;51.366;12.350;2023-04-19T09:07:24;101064.63;;;8.75;58.27
66681;BME280;53575;51.366;12.350;2023-04-19T09:10:06;101059.63;;;8.92;57.54
66681;BME280;53575;51.366;12.350;2023-04-19T09:12:33;101054.34;;;8.86;56.86
66681;BME280;53575;51.366;12.350;2023-04-19T09:15:00;101057.78;;;8.83;55.93
66681;BME280;53575;51.366;12.350;2023-04-19T09:17:30;101047.50;;;8.94;57.72
66681;BME280;53575;51.366;12.350;2023-04-19T09:19:57;101045.00;;;9.01;54.90
66681;BME280;53575;51.366;12.350;2023-04-19T09:22:23;101039.63;;;8.89;55.24
66681;BME280;53575;51.366;12.350;2023-04-19T09:24:49;101044.94;;;8.97;56.50
66681;BME280;53575;51.366;12.350;2023-04-19T09:27:24;101039.06;;;9.16;56.70
66681;BME280;53575;51.366;12.350;2023-04-19T09:29:54;101036.47;;;9.18;55.50
66681;BME280;53575;51.366;12.350;2023-04-19T09:32:20;101031.53;;;9.44;55.55
66681;BME280;53575;51.366;12.350;2023-04-19T09:34:57;101027.22;;;9.47;55.55
66681;BME280;53575;51.366;12.350;2023-04-19T09:37:23;101027.31;;;9.55;55.05
66681;BME280;53575;51.366;12.350;2023-04-19T09:39:50;101023.13;;;9.75;54.85
66681;BME280;53575;51.366;12.350;2023-04-19T09:42:15;101017.91;;;9.75;53.25
66681;BME280;53575;51.366;12.350;2023-04-19T09:44:55;101006.81;;;10.01;53.40
66681;BME280;53575;51.366;12.350;2023-04-19T09:47:25;100995.56;;;10.11;51.63
66681;BME280;53575;51.366;12.350;2023-04-19T09:50:09;101008.72;;;10.25;51.13
66681;BME280;53575;51.366;12.350;2023-04-19T09:52:35;101003.44;;;10.17;51.50
66681;BME280;53575;51.366;12.350;2023-04-19T09:55:02;101004.44;;;10.38;49.40
66681;BME280;53575;51.366;12.350;2023-04-19T09:57:29;100996.47;;;10.18;49.04
66681;BME280;53575;51.366;12.350;2023-04-19T09:59:57;100994.72;;;10.15;49.58
66681;BME280;53575;51.366;12.350;2023-04-19T10:02:23;100986.94;;;10.24;48.89
66681;BME280;53575;51.366;12.350;2023-04-19T10:04:50;100987.88;;;10.31;48.70
66681;BME280;53575;51.366;12.350;2023-04-19T10:07:17;100986.09;;;10.30;49.03
66681;BME280;53575;51.366;12.350;2023-04-19T10:09:45;100987.03;;;10.37;49.79
66681;BME280;53575;51.366;12.350;2023-04-19T10:12:12;100980.09;;;10.42;50.60
66681;BME280;53575;51.366;12.350;2023-04-19T10:14:41;100971.50;;;10.67;49.55
66681;BME280;53575;51.366;12.350;2023-04-19T10:17:07;100972.44;;;10.80;47.83
66681;BME280;53575;51.366;12.350;2023-04-19T10:19:34;100974.09;;;10.61;48.38
66681;BME280;53575;51.366;12.350;2023-04-19T10:22:00;100966.28;;;10.69;50.19
66681;BME280;53575;51.366;12.350;2023-04-19T10:24:29;100964.56;;;10.83;50.66
66681;BME280;53575;51.366;12.350;2023-04-19T10:27:15;100965.47;;;10.81;50.21
66681;BME280;53575;51.366;12.350;2023-04-19T10:32:18;100960.25;;;10.85;50.74
66681;BME280;53575;51.366;12.350;2023-04-19T10:34:44;100955.91;;;11.01;48.74
66681;BME280;53575;51.366;12.350;2023-04-19T10:37:10;100947.16;;;10.84;49.48
66681;BME280;53575;51.366;12.350;2023-04-19T10:39:43;100944.53;;;10.81;48.89
66681;BME280;53575;51.366;12.350;2023-04-19T10:42:09;100948.09;;;11.00;48.19
66681;BME280;53575;51.366;12.350;2023-04-19T10:44:35;100935.03;;;11.07;49.39
66681;BME280;53575;51.366;12.350;2023-04-19T10:47:01;100932.41;;;11.24;48.61
66681;BME280;53575;51.366;12.350;2023-04-19T10:49:29;100932.38;;;11.03;47.93
66681;BME280;53575;51.366;12.350;2023-04-19T10:51:55;100914.06;;;10.98;47.16
66681;BME280;53575;51.366;12.350;2023-04-19T10:54:29;100919.25;;;10.83;48.57
66681;BME280;53575;51.366;12.350;2023-04-19T10:57:02;100921.91;;;10.96;48.23
66681;BME280;53575;51.366;12.350;2023-04-19T10:59:31;100918.47;;;11.31;47.54
66681;BME280;53575;51.366;12.350;2023-04-19T11:02:04;100915.88;;;11.30;47.89
66681;BME280;53575;51.366;12.350;2023-04-19T11:11:53;100884.44;;;11.36;48.44
66681;BME280;53575;51.366;12.350;2023-04-19T11:14:22;100888.81;;;11.32;48.92
66681;BME280;53575;51.366;12.350;2023-04-19T11:16:48;100882.69;;;11.59;47.97
66681;BME280;53575;51.366;12.350;2023-04-19T11:19:18;100880.91;;;11.92;48.19
66681;BME280;53575;51.366;12.350;2023-04-19T11:21:44;100880.00;;;12.07;47.11
66681;BME280;53575;51.366;12.350;2023-04-19T11:24:10;100874.81;;;11.96;46.59
66681;BME280;53575;51.366;12.350;2023-04-19T11:26:36;100869.44;;;12.33;47.20
66681;BME280;53575;51.366;12.350;2023-04-19T11:29:02;100871.94;;;12.54;45.89
66681;BME280;53575;51.366;12.350;2023-04-19T11:31:28;100867.41;;;12.78;44.68
66681;BME280;53575;51.366;12.350;2023-04-19T11:33:57;100862.22;;;12.73;44.70
66681;BME280;53575;51.366;12.350;2023-04-19T11:36:23;100864.75;;;12.88;44.58
66681;BME280;53575;51.366;12.350;2023-04-19T11:38:48;100862.03;;;13.02;44.54
66681;BME280;53575;51.366;12.350;2023-04-19T11:41:14;100867.28;;;12.99;45.17
66681;BME280;53575;51.366;12.350;2023-04-19T11:43:40;100865.91;;;12.38;45.96
66681;BME280;53575;51.366;12.350;2023-04-19T11:46:10;100863.94;;;12.74;45.41
66681;BME280;53575;51.366;12.350;2023-04-19T11:48:37;100846.31;;;12.96;44.71
66681;BME280;53575;51.366;12.350;2023-04-19T11:51:03;100853.28;;;13.02;45.79
66681;BME280;53575;51.366;12.350;2023-04-19T11:53:30;100853.41;;;12.83;45.53
66681;BME280;53575;51.366;12.350;2023-04-19T11:56:06;100852.84;;;12.29;45.29
66681;BME280;53575;51.366;12.350;2023-04-19T11:58:42;100843.34;;;12.07;46.59
66681;BME280;53575;51.366;12.350;2023-04-19T12:01:21;100848.63;;;11.94;47.07
66681;BME280;53575;51.366;12.350;2023-04-19T12:03:53;100844.25;;;11.89;47.66
66681;BME280;53575;51.366;12.350;2023-04-19T12:06:29;100849.50;;;11.74;47.29
66681;BME280;53575;51.366;12.350;2023-04-19T12:08:57;100845.16;;;11.69;46.94
66681;BME280;53575;51.366;12.350;2023-04-19T12:11:41;100851.16;;;12.14;47.01
66681;BME280;53575;51.366;12.350;2023-04-19T12:14:10;100841.34;;;12.56;45.58
66681;BME280;53575;51.366;12.350;2023-04-19T12:16:36;100827.28;;;12.66;45.03
66681;BME280;53575;51.366;12.350;2023-04-19T12:19:12;100836.06;;;12.62;44.72
66681;BME280;53575;51.366;12.350;2023-04-19T12:21:38;100836.13;;;12.50;45.38
66681;BME280;53575;51.366;12.350;2023-04-19T12:24:04;100841.53;;;12.21;46.00
66681;BME280;53575;51.366;12.350;2023-04-19T12:26:30;100835.44;;;12.14;46.32
66681;BME280;53575;51.366;12.350;2023-04-19T12:28:57;100831.91;;;12.17;47.48
66681;BME280;53575;51.366;12.350;2023-04-19T12:31:23;100831.06;;;12.21;46.71
66681;BME280;53575;51.366;12.350;2023-04-19T12:33:48;100832.91;;;11.79;47.02
66681;BME280;53575;51.366;12.350;2023-04-19T12:36:14;100825.16;;;11.07;51.74
66681;BME280;53575;51.366;12.350;2023-04-19T12:41:07;100842.47;;;10.35;58.45
66681;BME280;53575;51.366;12.350;2023-04-19T12:43:32;100836.41;;;10.46;58.39
66681;BME280;53575;51.366;12.350;2023-04-19T12:45:58;100821.66;;;10.61;56.70
66681;BME280;53575;51.366;12.350;2023-04-19T12:48:25;100812.94;;;10.98;56.74
66681;BME280;53575;51.366;12.350;2023-04-19T12:50:51;100811.19;;;11.34;55.81
66681;BME280;53575;51.366;12.350;2023-04-19T12:53:16;100811.19;;;11.36;55.60
66681;BME280;53575;51.366;12.350;2023-04-19T12:55:42;100801.53;;;11.59;55.01